createdAt,value
2023-04-01T00:03:44.956Z,2.40
2023-04-01T00:07:45.901Z,2.80
2023-04-01T00:11:45.410Z,2.50
2023-04-01T00:15:45.622Z,2.80
2023-04-01T00:19:44.814Z,2.60
2023-04-01T00:23:45.106Z,2.70
2023-04-01T00:27:45.284Z,2.20
2023-04-01T00:31:45.015Z,2.10
2023-04-01T00:35:45.144Z,1.90
2023-04-01T00:39:45.984Z,2.40
2023-04-01T00:43:47.004Z,2.10
2023-04-01T00:47:45.337Z,2.00
2023-04-01T00:51:48.061Z,1.90
2023-04-01T00:55:51.612Z,2.00
2023-04-01T00:59:49.791Z,2.00
2023-04-01T01:03:45.328Z,2.00
2023-04-01T01:11:54.085Z,1.80
2023-04-01T01:15:50.085Z,1.90
2023-04-01T01:19:57.226Z,1.80
2023-04-01T01:24:03.298Z,1.90
2023-04-01T01:27:54.303Z,2.00
2023-04-01T01:31:56.268Z,2.30
2023-04-01T01:35:48.351Z,2.20
2023-04-01T01:39:56.138Z,2.30
2023-04-01T01:43:48.483Z,2.20
2023-04-01T01:47:46.220Z,2.20
2023-04-01T01:51:45.486Z,2.10
2023-04-01T01:55:47.192Z,2.20
2023-04-01T01:59:48.506Z,2.10
2023-04-01T02:03:46.718Z,2.30
2023-04-01T02:07:53.978Z,2.60
2023-04-01T02:11:49.628Z,2.40
2023-04-01T02:15:49.394Z,2.50
2023-04-01T02:19:49.859Z,2.50
2023-04-01T02:23:46.927Z,2.40
2023-04-01T02:31:46.136Z,2.50
2023-04-01T02:35:45.466Z,2.60
2023-04-01T02:39:45.462Z,2.10
2023-04-01T02:43:45.128Z,2.30
2023-04-01T02:47:45.545Z,2.10
2023-04-01T02:51:45.287Z,1.70
2023-04-01T02:55:45.385Z,2.10
2023-04-01T02:59:45.502Z,1.90
2023-04-01T03:03:45.523Z,2.00
2023-04-01T03:07:45.646Z,2.20
2023-04-01T03:15:45.373Z,2.20
2023-04-01T03:19:45.771Z,2.20
2023-04-01T03:23:45.960Z,2.40
2023-04-01T03:31:45.812Z,2.30
2023-04-01T03:35:45.591Z,2.10
2023-04-01T03:39:45.472Z,2.40
2023-04-01T03:47:45.579Z,2.10
2023-04-01T03:51:45.482Z,2.30
2023-04-01T03:55:45.514Z,2.10
2023-04-01T03:59:45.402Z,2.00
2023-04-01T04:03:45.821Z,2.10
2023-04-01T04:07:45.313Z,1.90
2023-04-01T04:15:45.438Z,2.00
2023-04-01T04:19:45.406Z,2.50
2023-04-01T04:23:45.505Z,2.60
2023-04-01T04:27:45.547Z,2.30
2023-04-01T04:31:45.990Z,2.70
2023-04-01T04:35:46.010Z,2.30
2023-04-01T04:39:46.141Z,2.40
2023-04-01T04:43:51.022Z,3.20
2023-04-01T04:47:45.802Z,2.70
2023-04-01T04:51:45.582Z,2.90
2023-04-01T04:55:46.230Z,2.80
2023-04-01T04:59:45.959Z,3.00
2023-04-01T05:03:46.357Z,2.50
2023-04-01T05:07:45.705Z,2.80
2023-04-01T05:11:45.979Z,2.90
2023-04-01T05:15:45.659Z,2.90
2023-04-01T05:19:46.014Z,3.20
2023-04-01T05:23:45.968Z,3.20
2023-04-01T05:27:45.970Z,3.20
2023-04-01T05:31:45.734Z,3.20
2023-04-01T05:35:45.829Z,3.10
2023-04-01T05:39:46.259Z,3.20
2023-04-01T05:43:45.739Z,3.00
2023-04-01T05:51:45.949Z,3.40
2023-04-01T05:55:46.077Z,3.40
2023-04-01T05:59:46.088Z,3.40
2023-04-01T06:03:45.779Z,3.80
2023-04-01T06:07:46.504Z,4.10
2023-04-01T06:15:57.634Z,4.10
2023-04-01T06:19:55.477Z,3.90
2023-04-01T06:23:58.648Z,3.50
2023-04-01T06:28:01.264Z,4.00
2023-04-01T06:32:00.524Z,4.70
2023-04-01T06:39:56.402Z,5.00
2023-04-01T06:43:59.668Z,5.10
2023-04-01T06:47:57.434Z,4.70
2023-04-01T06:51:54.685Z,5.00
2023-04-01T06:55:48.244Z,4.80
2023-04-01T06:59:47.635Z,5.10
2023-04-01T07:03:51.704Z,5.10
2023-04-01T07:07:50.466Z,5.60
2023-04-01T07:11:46.443Z,5.30
2023-04-01T07:15:56.737Z,5.20
2023-04-01T07:19:52.834Z,4.90
2023-04-01T07:23:47.499Z,4.70
2023-04-01T07:27:47.026Z,4.40
2023-04-01T07:35:55.838Z,4.80
2023-04-01T07:39:54.787Z,4.60
2023-04-01T07:44:00.054Z,4.40
2023-04-01T07:47:59.689Z,3.80
2023-04-01T07:51:58.791Z,4.00
2023-04-01T07:55:54.825Z,4.50
2023-04-01T07:59:52.192Z,4.30
2023-04-01T08:04:04.789Z,4.00
2023-04-01T08:07:55.367Z,3.60
2023-04-01T08:15:53.317Z,3.50
2023-04-01T08:23:49.663Z,3.20
2023-04-01T08:31:50.576Z,3.00
2023-04-01T08:35:51.868Z,3.20
2023-04-01T08:39:52.126Z,3.30
2023-04-01T08:44:05.360Z,3.40
2023-04-01T08:48:01.529Z,3.20
2023-04-01T08:52:06.015Z,3.20
2023-04-01T08:55:59.655Z,3.70
2023-04-01T09:00:01.020Z,3.90
2023-04-01T09:04:05.692Z,4.10
2023-04-01T09:07:56.187Z,4.60
2023-04-01T09:12:05.984Z,4.90
2023-04-01T09:15:58.573Z,4.50
2023-04-01T09:20:05.458Z,4.70
2023-04-01T09:24:06.183Z,4.40
2023-04-01T09:27:56.193Z,4.70
2023-04-01T09:35:48.836Z,5.20
2023-04-01T09:39:56.321Z,5.00
2023-04-01T09:44:01.580Z,5.00
2023-04-01T09:48:00.920Z,4.90
2023-04-01T09:52:00.663Z,4.70
2023-04-01T09:56:06.060Z,4.50
2023-04-01T10:00:00.041Z,4.80
2023-04-01T10:04:07.108Z,4.70
2023-04-01T10:08:06.298Z,5.00
2023-04-01T10:16:00.284Z,4.60
2023-04-01T10:23:57.441Z,3.70
2023-04-01T10:27:58.419Z,3.70
2023-04-01T10:32:05.643Z,3.70
2023-04-01T10:36:06.353Z,3.90
2023-04-01T10:40:06.346Z,3.50
2023-04-01T10:43:58.624Z,3.30
2023-04-01T10:48:06.476Z,2.90
2023-04-01T10:52:06.382Z,3.30
2023-04-01T10:56:06.358Z,3.90
2023-04-01T11:00:06.666Z,3.30
2023-04-01T11:04:06.374Z,3.50
2023-04-01T11:08:07.341Z,3.70
2023-04-01T11:12:03.815Z,3.30
2023-04-01T11:16:06.501Z,3.20
2023-04-01T11:20:06.295Z,2.70
2023-04-01T11:24:04.521Z,3.00
2023-04-01T11:28:01.757Z,2.70
2023-04-01T11:31:53.772Z,2.50
2023-04-01T11:35:58.630Z,2.20
2023-04-01T11:39:58.400Z,2.60
2023-04-01T11:43:55.405Z,2.20
2023-04-01T11:47:53.999Z,2.70
2023-04-01T11:52:01.363Z,2.70
2023-04-01T11:55:55.563Z,2.40
2023-04-01T11:59:58.568Z,2.60
2023-04-01T12:03:56.833Z,2.20
2023-04-01T12:08:01.619Z,2.60
2023-04-01T12:12:02.459Z,2.50
2023-04-01T12:16:04.885Z,2.40
2023-04-01T12:19:53.613Z,2.30
2023-04-01T12:24:06.654Z,1.90
2023-04-01T12:28:00.227Z,2.30
2023-04-01T12:31:56.950Z,2.00
2023-04-01T12:36:00.654Z,2.00
2023-04-01T12:40:02.511Z,2.50
2023-04-01T12:44:06.634Z,2.60
2023-04-01T12:48:03.280Z,2.50
2023-04-01T12:55:50.743Z,2.10
2023-04-01T13:00:03.817Z,2.00
2023-04-01T13:04:05.829Z,2.30
2023-04-01T13:08:02.443Z,2.50
2023-04-01T13:12:01.161Z,2.80
2023-04-01T13:15:52.299Z,3.30
2023-04-01T13:23:56.171Z,3.50
2023-04-01T13:27:51.641Z,3.10
2023-04-01T13:31:55.615Z,3.30
2023-04-01T13:35:57.612Z,3.30
2023-04-01T13:40:03.765Z,3.20
2023-04-01T13:43:52.776Z,3.20
2023-04-01T13:48:00.789Z,2.80
2023-04-01T13:52:03.514Z,2.70
2023-04-01T13:55:55.000Z,2.80
2023-04-01T14:00:03.560Z,3.00
2023-04-01T14:04:06.736Z,2.90
2023-04-01T14:08:00.494Z,3.10
2023-04-01T14:11:55.628Z,2.30
2023-04-01T14:20:02.977Z,2.90
2023-04-01T14:23:56.253Z,3.70
2023-04-01T14:28:00.652Z,3.20
2023-04-01T14:32:00.171Z,3.60
2023-04-01T14:35:59.814Z,3.40
2023-04-01T14:40:05.199Z,3.50
2023-04-01T14:44:02.020Z,3.80
2023-04-01T14:47:50.903Z,3.60
2023-04-01T14:51:48.571Z,3.40
2023-04-01T14:55:51.318Z,4.00
2023-04-01T14:59:50.211Z,4.00
2023-04-01T15:03:57.231Z,3.90
2023-04-01T15:08:02.267Z,4.10
2023-04-01T15:11:54.891Z,4.10
2023-04-01T15:16:03.178Z,3.90
2023-04-01T15:23:57.541Z,4.10
2023-04-01T15:27:55.965Z,4.50
2023-04-01T15:31:52.895Z,4.30
2023-04-01T15:35:54.166Z,4.40
2023-04-01T15:39:55.599Z,4.10
2023-04-01T15:43:49.217Z,4.00
2023-04-01T15:48:00.415Z,3.30
2023-04-01T15:52:02.682Z,3.60
2023-04-01T15:55:54.809Z,3.30
2023-04-01T16:00:02.689Z,3.00
2023-04-01T16:03:55.617Z,2.80
2023-04-01T16:08:04.025Z,2.90
2023-04-01T16:11:57.366Z,2.60
2023-04-01T16:15:57.735Z,2.60
2023-04-01T16:19:52.971Z,2.70
2023-04-01T16:23:50.650Z,2.90
2023-04-01T16:27:56.133Z,2.40
2023-04-01T16:31:55.749Z,2.50
2023-04-01T16:35:53.557Z,2.70
2023-04-01T16:39:54.512Z,2.60
2023-04-01T16:43:54.819Z,2.50
2023-04-01T16:47:52.096Z,2.20
2023-04-01T16:55:53.014Z,2.60
2023-04-01T16:59:55.147Z,2.20
2023-04-01T17:03:53.295Z,2.30
2023-04-01T17:07:59.688Z,2.50
2023-04-01T17:11:56.352Z,2.20
2023-04-01T17:16:02.461Z,2.00
2023-04-01T17:20:01.712Z,1.90
2023-04-01T17:23:51.500Z,1.90
2023-04-01T17:27:57.542Z,2.00
2023-04-01T17:32:01.011Z,1.90
2023-04-01T17:43:55.806Z,2.00
2023-04-01T17:47:55.899Z,2.10
2023-04-01T17:51:57.015Z,2.50
2023-04-01T17:56:02.831Z,2.20
2023-04-01T17:59:59.579Z,2.00
2023-04-01T18:04:00.217Z,2.40
2023-04-01T18:11:58.535Z,3.00
2023-04-01T18:16:00.054Z,2.80
2023-04-01T18:24:01.538Z,2.70
2023-04-01T18:27:52.122Z,2.50
2023-04-01T18:31:51.792Z,2.10
2023-04-01T18:35:51.820Z,2.00
2023-04-01T18:43:58.450Z,2.00
2023-04-01T18:47:57.894Z,2.20
2023-04-01T18:51:53.791Z,2.40
2023-04-01T18:55:50.605Z,2.30
2023-04-01T18:59:52.974Z,2.20
2023-04-01T19:03:55.661Z,2.40
2023-04-01T19:07:49.864Z,2.60
2023-04-01T19:12:00.105Z,2.60
2023-04-01T19:15:56.007Z,2.00
2023-04-01T19:24:01.195Z,2.10
2023-04-01T19:27:51.732Z,1.80
2023-04-01T19:31:58.824Z,2.20
2023-04-01T19:35:59.654Z,3.40
2023-04-01T19:39:56.111Z,2.10
2023-04-01T19:43:58.843Z,2.30
2023-04-01T19:48:00.289Z,2.00
2023-04-01T19:51:54.198Z,2.10
2023-04-01T19:55:54.516Z,2.00
2023-04-01T19:59:53.307Z,2.30
2023-04-01T20:03:52.256Z,2.50
2023-04-01T20:07:52.805Z,2.30
2023-04-01T20:16:00.099Z,2.30
2023-04-01T20:19:57.954Z,2.10
2023-04-01T20:23:55.502Z,2.00
2023-04-01T20:27:53.505Z,2.10
2023-04-01T20:31:59.188Z,1.90
2023-04-01T20:36:03.573Z,1.90
2023-04-01T20:40:07.823Z,2.00
2023-04-01T20:43:58.974Z,1.80
2023-04-01T20:48:05.196Z,1.60
2023-04-01T20:51:54.712Z,1.70
2023-04-01T20:56:06.389Z,1.70
2023-04-01T21:00:08.082Z,1.90
2023-04-01T21:04:02.552Z,2.00
2023-04-01T21:07:55.996Z,1.80
2023-04-01T21:11:53.669Z,1.90
2023-04-01T21:15:58.269Z,1.90
2023-04-01T21:20:09.590Z,1.90
2023-04-01T21:23:58.284Z,1.80
2023-04-01T21:28:00.515Z,2.00
2023-04-01T21:32:04.506Z,1.90
2023-04-01T21:36:00.190Z,2.20
2023-04-01T21:39:59.406Z,2.50
2023-04-01T21:44:05.218Z,2.60
2023-04-01T21:48:08.308Z,2.20
2023-04-01T21:52:07.975Z,2.20
2023-04-01T21:56:08.107Z,2.40
2023-04-01T22:00:11.020Z,1.80
2023-04-01T22:03:59.137Z,1.80
2023-04-01T22:07:59.292Z,1.80
2023-04-01T22:11:55.705Z,2.10
2023-04-01T22:16:00.841Z,1.70
2023-04-01T22:19:56.754Z,1.90
2023-04-01T22:23:56.615Z,1.60
2023-04-01T22:27:53.131Z,2.00
2023-04-01T22:31:54.559Z,2.30
2023-04-01T22:35:57.737Z,1.80
2023-04-01T22:40:00.065Z,1.60
2023-04-01T22:48:01.225Z,2.00
2023-04-01T22:51:52.831Z,2.00
2023-04-01T22:55:53.590Z,1.90
2023-04-01T22:59:55.023Z,2.00
2023-04-01T23:03:51.526Z,1.80
2023-04-01T23:07:56.377Z,1.80
2023-04-01T23:11:55.281Z,1.60
2023-04-01T23:15:51.530Z,2.00
2023-04-01T23:19:56.325Z,1.80
2023-04-01T23:23:57.006Z,1.50
2023-04-01T23:27:53.787Z,1.50
2023-04-01T23:31:57.371Z,1.40
2023-04-01T23:39:51.429Z,1.50
2023-04-01T23:43:54.413Z,1.30
2023-04-01T23:47:50.496Z,1.40
2023-04-01T23:51:53.542Z,1.30
2023-04-01T23:55:48.970Z,1.30
